Espanola, Washington
Current Conditions -  °F | °C
As of 3:58 PM on Sunday 23 Nov 2014 (Local Time) from KSKA Reporting Station
Scattered Clouds Scattered Clouds  
Wind Chill: -2°   Ceiling: Unl
Heat Index:   Visibility: 10mi
Dew Point:   Wind: 23mph
Humidity: 84%   Direction: 220°SW
Pressure: 29.98"   Gusts: NA
Location:  47.6094°N, 117.705°W
Report Text: KSKA 232358Z AUTO 22020KT 10SM SCT160 04/01 A2998 RMK AO2 PK WND 22029/14 SLP173 6//// T00370012 400451018 53001 RVRNO $
Loading
Personal Weather Stations






























Interactive Weather Map New forecast layout! Learn more

10-Day Weather Forecast

Advertisements
Track Severe Weather on mobile